sensor_id;sensor_type;location;lat;lon;timestamp;pressure;altitude;pressure_sealevel;temperature;humidity
51261;BME280;61705;46.228;24.812;2024-02-04T00:00:03;97685.63;;;0.94;100.00
51261;BME280;61705;46.228;24.812;2024-02-04T00:02:32;97687.38;;;0.94;100.00
51261;BME280;61705;46.228;24.812;2024-02-04T00:04:59;97686.47;;;0.98;100.00
51261;BME280;61705;46.228;24.812;2024-02-04T00:07:25;97675.16;;;0.99;100.00
51261;BME280;61705;46.228;24.812;2024-02-04T00:09:53;97665.63;;;1.01;100.00
51261;BME280;61705;46.228;24.812;2024-02-04T00:12:19;97650.00;;;1.04;100.00
51261;BME280;61705;46.228;24.812;2024-02-04T00:14:46;97645.69;;;1.03;100.00
51261;BME280;61705;46.228;24.812;2024-02-04T00:17:12;97642.22;;;1.01;100.00
51261;BME280;61705;46.228;24.812;2024-02-04T00:19:40;97643.13;;;0.97;100.00
51261;BME280;61705;46.228;24.812;2024-02-04T00:22:08;97639.66;;;0.97;100.00
51261;BME280;61705;46.228;24.812;2024-02-04T00:24:34;97643.13;;;0.97;100.00
51261;BME280;61705;46.228;24.812;2024-02-04T00:27:01;97637.94;;;0.94;100.00
51261;BME280;61705;46.228;24.812;2024-02-04T00:29:27;97635.34;;;0.91;100.00
51261;BME280;61705;46.228;24.812;2024-02-04T00:31:54;97651.81;;;0.91;100.00
51261;BME280;61705;46.228;24.812;2024-02-04T00:34:20;97645.75;;;0.91;100.00
51261;BME280;61705;46.228;24.812;2024-02-04T00:36:47;97653.56;;;0.92;100.00
51261;BME280;61705;46.228;24.812;2024-02-04T00:39:14;97660.44;;;1.01;100.00
51261;BME280;61705;46.228;24.812;2024-02-04T00:41:40;97658.69;;;1.02;100.00
51261;BME280;61705;46.228;24.812;2024-02-04T00:44:07;97654.31;;;1.05;100.00
51261;BME280;61705;46.228;24.812;2024-02-04T00:46:33;97651.75;;;1.04;100.00
51261;BME280;61705;46.228;24.812;2024-02-04T00:49:00;97651.72;;;1.02;100.00
51261;BME280;61705;46.228;24.812;2024-02-04T00:51:27;97653.47;;;1.03;100.00
51261;BME280;61705;46.228;24.812;2024-02-04T00:53:54;97641.31;;;1.05;100.00
51261;BME280;61705;46.228;24.812;2024-02-04T00:56:20;97650.03;;;1.00;100.00
51261;BME280;61705;46.228;24.812;2024-02-04T00:58:47;97643.97;;;0.98;100.00
51261;BME280;61705;46.228;24.812;2024-02-04T01:01:13;97626.66;;;0.97;100.00
51261;BME280;61705;46.228;24.812;2024-02-04T01:03:40;97618.06;;;0.85;100.00
51261;BME280;61705;46.228;24.812;2024-02-04T01:06:07;97619.78;;;0.89;100.00
51261;BME280;61705;46.228;24.812;2024-02-04T01:08:33;97623.25;;;0.87;100.00
51261;BME280;61705;46.228;24.812;2024-02-04T01:11:01;97624.09;;;0.90;100.00
51261;BME280;61705;46.228;24.812;2024-02-04T01:13:27;97629.28;;;0.90;100.00
51261;BME280;61705;46.228;24.812;2024-02-04T01:15:54;97623.19;;;0.94;100.00
51261;BME280;61705;46.228;24.812;2024-02-04T01:18:21;97624.03;;;1.00;100.00
51261;BME280;61705;46.228;24.812;2024-02-04T01:20:47;97617.97;;;0.94;100.00
51261;BME280;61705;46.228;24.812;2024-02-04T01:23:14;97612.81;;;0.91;100.00
51261;BME280;61705;46.228;24.812;2024-02-04T01:25:44;97610.22;;;0.90;100.00
51261;BME280;61705;46.228;24.812;2024-02-04T01:28:10;97604.16;;;0.92;100.00
51261;BME280;61705;46.228;24.812;2024-02-04T01:30:37;97606.69;;;0.95;100.00
51261;BME280;61705;46.228;24.812;2024-02-04T01:33:04;97600.69;;;0.89;100.00
51261;BME280;61705;46.228;24.812;2024-02-04T01:35:30;97598.16;;;0.83;100.00
51261;BME280;61705;46.228;24.812;2024-02-04T01:37:57;97598.16;;;0.83;100.00
51261;BME280;61705;46.228;24.812;2024-02-04T01:40:23;97599.88;;;0.81;100.00
51261;BME280;61705;46.228;24.812;2024-02-04T01:42:50;97598.19;;;0.77;100.00
51261;BME280;61705;46.228;24.812;2024-02-04T01:45:17;97602.50;;;0.81;100.00
51261;BME280;61705;46.228;24.812;2024-02-04T01:47:43;97601.59;;;0.82;100.00
51261;BME280;61705;46.228;24.812;2024-02-04T01:50:10;97603.34;;;0.81;100.00
51261;BME280;61705;46.228;24.812;2024-02-04T01:52:37;97607.66;;;0.84;100.00
51261;BME280;61705;46.228;24.812;2024-02-04T01:55:04;97594.66;;;0.84;100.00
51261;BME280;61705;46.228;24.812;2024-02-04T01:57:32;97595.53;;;0.81;100.00
51261;BME280;61705;46.228;24.812;2024-02-04T02:00:00;97598.97;;;0.85;100.00
51261;BME280;61705;46.228;24.812;2024-02-04T02:02:27;97597.28;;;0.81;100.00
51261;BME280;61705;46.228;24.812;2024-02-04T02:04:54;97592.97;;;0.78;100.00
51261;BME280;61705;46.228;24.812;2024-02-04T02:07:21;97594.72;;;0.78;100.00
51261;BME280;61705;46.228;24.812;2024-02-04T02:09:48;97606.88;;;0.76;100.00
51261;BME280;61705;46.228;24.812;2024-02-04T02:12:19;97604.22;;;0.80;100.00
51261;BME280;61705;46.228;24.812;2024-02-04T02:14:50;97602.53;;;0.75;100.00
51261;BME280;61705;46.228;24.812;2024-02-04T02:17:23;97603.41;;;0.74;100.00
51261;BME280;61705;46.228;24.812;2024-02-04T02:19:57;97600.00;;;0.68;100.00
51261;BME280;61705;46.228;24.812;2024-02-04T02:22:29;97597.38;;;0.70;100.00
51261;BME280;61705;46.228;24.812;2024-02-04T02:25:01;97593.88;;;0.76;100.00
51261;BME280;61705;46.228;24.812;2024-02-04T02:27:30;97580.00;;;0.77;100.00
51261;BME280;61705;46.228;24.812;2024-02-04T02:29:57;97570.41;;;0.82;100.00
51261;BME280;61705;46.228;24.812;2024-02-04T02:32:23;97573.00;;;0.83;100.00
51261;BME280;61705;46.228;24.812;2024-02-04T02:34:50;97579.03;;;0.85;100.00
51261;BME280;61705;46.228;24.812;2024-02-04T02:39:57;97580.78;;;0.85;100.00
51261;BME280;61705;46.228;24.812;2024-02-04T02:42:25;97568.66;;;0.84;100.00
51261;BME280;61705;46.228;24.812;2024-02-04T02:44:53;97566.16;;;0.73;100.00
51261;BME280;61705;46.228;24.812;2024-02-04T02:47:20;97564.47;;;0.69;100.00
51261;BME280;61705;46.228;24.812;2024-02-04T02:49:50;97567.91;;;0.69;100.00
51261;BME280;61705;46.228;24.812;2024-02-04T02:52:17;97575.66;;;0.77;100.00
51261;BME280;61705;46.228;24.812;2024-02-04T02:54:44;97580.81;;;0.80;100.00
51261;BME280;61705;46.228;24.812;2024-02-04T02:57:10;97574.78;;;0.75;100.00
51261;BME280;61705;46.228;24.812;2024-02-04T02:59:37;97567.91;;;0.73;100.00
51261;BME280;61705;46.228;24.812;2024-02-04T03:02:04;97574.84;;;0.70;100.00
51261;BME280;61705;46.228;24.812;2024-02-04T03:04:30;97591.31;;;0.68;100.00
51261;BME280;61705;46.228;24.812;2024-02-04T03:06:57;97593.91;;;0.68;100.00
51261;BME280;61705;46.228;24.812;2024-02-04T03:09:24;97594.81;;;0.68;100.00
51261;BME280;61705;46.228;24.812;2024-02-04T03:11:50;97582.66;;;0.69;100.00
51261;BME280;61705;46.228;24.812;2024-02-04T03:14:18;97594.78;;;0.70;100.00
51261;BME280;61705;46.228;24.812;2024-02-04T03:16:44;97592.22;;;0.68;100.00
51261;BME280;61705;46.228;24.812;2024-02-04T03:19:11;97596.53;;;0.69;100.00
51261;BME280;61705;46.228;24.812;2024-02-04T03:21:38;97600.84;;;0.67;100.00
51261;BME280;61705;46.228;24.812;2024-02-04T03:24:05;97609.59;;;0.62;100.00
51261;BME280;61705;46.228;24.812;2024-02-04T03:26:32;97603.53;;;0.60;100.00
51261;BME280;61705;46.228;24.812;2024-02-04T03:28:58;97612.22;;;0.56;100.00
51261;BME280;61705;46.228;24.812;2024-02-04T03:31:25;97613.13;;;0.50;100.00
51261;BME280;61705;46.228;24.812;2024-02-04T03:33:51;97620.03;;;0.51;100.00
51261;BME280;61705;46.228;24.812;2024-02-04T03:36:19;97615.69;;;0.53;100.00
51261;BME280;61705;46.228;24.812;2024-02-04T03:38:46;97624.31;;;0.60;100.00
51261;BME280;61705;46.228;24.812;2024-02-04T03:41:13;97617.38;;;0.63;100.00
51261;BME280;61705;46.228;24.812;2024-02-04T03:43:40;97610.44;;;0.65;100.00
51261;BME280;61705;46.228;24.812;2024-02-04T03:46:06;97604.34;;;0.65;100.00
51261;BME280;61705;46.228;24.812;2024-02-04T03:48:33;97606.94;;;0.65;100.00
51261;BME280;61705;46.228;24.812;2024-02-04T03:51:01;97610.38;;;0.70;100.00
51261;BME280;61705;46.228;24.812;2024-02-04T03:53:28;97601.72;;;0.69;100.00
51261;BME280;61705;46.228;24.812;2024-02-04T03:55:55;97599.09;;;0.73;100.00
51261;BME280;61705;46.228;24.812;2024-02-04T03:58:22;97600.81;;;0.74;100.00
51261;BME280;61705;46.228;24.812;2024-02-04T04:00:55;97601.69;;;0.71;100.00
51261;BME280;61705;46.228;24.812;2024-02-04T04:03:23;97599.94;;;0.76;100.00
51261;BME280;61705;46.228;24.812;2024-02-04T04:05:50;97607.75;;;0.76;100.00
51261;BME280;61705;46.228;24.812;2024-02-04T04:08:17;97612.91;;;0.79;100.00
51261;BME280;61705;46.228;24.812;2024-02-04T04:10:45;97595.59;;;0.75;100.00
51261;BME280;61705;46.228;24.812;2024-02-04T04:13:12;97591.31;;;0.73;100.00
51261;BME280;61705;46.228;24.812;2024-02-04T04:15:39;97583.50;;;0.73;100.00
51261;BME280;61705;46.228;24.812;2024-02-04T04:18:05;97590.38;;;0.75;100.00
51261;BME280;61705;46.228;24.812;2024-02-04T04:20:32;97591.25;;;0.77;100.00
51261;BME280;61705;46.228;24.812;2024-02-04T04:22:59;97582.56;;;0.78;100.00
51261;BME280;61705;46.228;24.812;2024-02-04T04:25:25;97587.75;;;0.78;100.00
51261;BME280;61705;46.228;24.812;2024-02-04T04:27:52;97573.94;;;0.76;100.00
51261;BME280;61705;46.228;24.812;2024-02-04T04:30:19;97572.22;;;0.74;100.00
51261;BME280;61705;46.228;24.812;2024-02-04T04:32:45;97566.97;;;0.78;100.00
51261;BME280;61705;46.228;24.812;2024-02-04T04:35:12;97571.34;;;0.76;100.00
51261;BME280;61705;46.228;24.812;2024-02-04T04:37:38;97555.75;;;0.73;100.00
51261;BME280;61705;46.228;24.812;2024-02-04T04:40:05;97563.63;;;0.65;100.00
51261;BME280;61705;46.228;24.812;2024-02-04T04:42:32;97567.06;;;0.67;100.00
51261;BME280;61705;46.228;24.812;2024-02-04T04:44:59;97556.69;;;0.64;100.00
51261;BME280;61705;46.228;24.812;2024-02-04T04:47:26;97549.78;;;0.62;100.00
51261;BME280;61705;46.228;24.812;2024-02-04T04:49:52;97551.53;;;0.60;100.00
51261;BME280;61705;46.228;24.812;2024-02-04T04:52:19;97555.06;;;0.53;100.00
51261;BME280;61705;46.228;24.812;2024-02-04T04:54:45;97562.03;;;0.46;100.00
51261;BME280;61705;46.228;24.812;2024-02-04T04:57:12;97575.91;;;0.40;100.00
51261;BME280;61705;46.228;24.812;2024-02-04T04:59:39;97566.38;;;0.41;100.00
51261;BME280;61705;46.228;24.812;2024-02-04T05:02:06;97575.88;;;0.48;100.00
51261;BME280;61705;46.228;24.812;2024-02-04T05:04:32;97573.25;;;0.51;100.00
51261;BME280;61705;46.228;24.812;2024-02-04T05:06:59;97577.59;;;0.49;100.00
51261;BME280;61705;46.228;24.812;2024-02-04T05:09:26;97577.56;;;0.54;100.00
51261;BME280;61705;46.228;24.812;2024-02-04T05:11:52;97574.94;;;0.57;100.00
51261;BME280;61705;46.228;24.812;2024-02-04T05:14:19;97573.25;;;0.51;100.00
51261;BME280;61705;46.228;24.812;2024-02-04T05:16:46;97563.72;;;0.53;100.00
51261;BME280;61705;46.228;24.812;2024-02-04T05:19:12;97566.31;;;0.53;100.00
51261;BME280;61705;46.228;24.812;2024-02-04T05:21:39;97579.28;;;0.56;100.00
51261;BME280;61705;46.228;24.812;2024-02-04T05:24:09;97589.63;;;0.64;100.00
51261;BME280;61705;46.228;24.812;2024-02-04T05:26:36;97588.78;;;0.62;100.00
51261;BME280;61705;46.228;24.812;2024-02-04T05:29:03;97585.28;;;0.61;100.00
51261;BME280;61705;46.228;24.812;2024-02-04T05:31:29;97590.53;;;0.60;100.00
51261;BME280;61705;46.228;24.812;2024-02-04T05:33:56;97590.50;;;0.61;100.00
51261;BME280;61705;46.228;24.812;2024-02-04T05:36:23;97587.88;;;0.64;100.00
51261;BME280;61705;46.228;24.812;2024-02-04T05:38:49;97580.94;;;0.66;100.00
51261;BME280;61705;46.228;24.812;2024-02-04T05:41:16;97575.75;;;0.66;100.00
51261;BME280;61705;46.228;24.812;2024-02-04T05:43:42;97573.13;;;0.69;100.00
51261;BME280;61705;46.228;24.812;2024-02-04T05:46:09;97572.19;;;0.75;100.00
51261;BME280;61705;46.228;24.812;2024-02-04T05:48:36;97572.22;;;0.74;100.00
51261;BME280;61705;46.228;24.812;2024-02-04T05:51:03;97573.13;;;0.69;100.00
51261;BME280;61705;46.228;24.812;2024-02-04T05:53:29;97579.19;;;0.70;100.00
51261;BME280;61705;46.228;24.812;2024-02-04T05:55:56;97577.47;;;0.69;100.00
51261;BME280;61705;46.228;24.812;2024-02-04T05:58:22;97589.56;;;0.71;100.00
51261;BME280;61705;46.228;24.812;2024-02-04T06:00:49;97597.34;;;0.76;100.00
51261;BME280;61705;46.228;24.812;2024-02-04T06:03:16;97605.13;;;0.79;100.00
51261;BME280;61705;46.228;24.812;2024-02-04T06:05:42;97599.09;;;0.73;100.00
51261;BME280;61705;46.228;24.812;2024-02-04T06:08:09;97606.84;;;0.77;100.00
51261;BME280;61705;46.228;24.812;2024-02-04T06:10:36;97615.47;;;0.84;100.00
51261;BME280;61705;46.228;24.812;2024-02-04T06:13:02;97622.38;;;0.88;100.00
51261;BME280;61705;46.228;24.812;2024-02-04T06:15:29;97626.66;;;0.97;100.00
51261;BME280;61705;46.228;24.812;2024-02-04T06:17:56;97620.53;;;0.99;100.00
51261;BME280;61705;46.228;24.812;2024-02-04T06:20:22;97615.34;;;0.99;100.00
51261;BME280;61705;46.228;24.812;2024-02-04T06:22:49;97621.41;;;1.01;100.00
51261;BME280;61705;46.228;24.812;2024-02-04T06:25:15;97621.44;;;1.00;100.00
51261;BME280;61705;46.228;24.812;2024-02-04T06:27:42;97619.69;;;0.99;100.00
51261;BME280;61705;46.228;24.812;2024-02-04T06:30:09;97629.22;;;1.03;100.00
51261;BME280;61705;46.228;24.812;2024-02-04T06:32:36;97623.94;;;1.06;100.00
51261;BME280;61705;46.228;24.812;2024-02-04T06:35:03;97612.63;;;1.14;100.00
51261;BME280;61705;46.228;24.812;2024-02-04T06:37:29;97619.47;;;1.22;100.00
51261;BME280;61705;46.228;24.812;2024-02-04T06:39:56;97629.91;;;1.18;100.00
51261;BME280;61705;46.228;24.812;2024-02-04T06:42:23;97621.19;;;1.23;100.00
51261;BME280;61705;46.228;24.812;2024-02-04T06:44:49;97628.06;;;1.30;100.00
51261;BME280;61705;46.228;24.812;2024-02-04T06:47:16;97633.28;;;1.30;100.00
51261;BME280;61705;46.228;24.812;2024-02-04T06:49:45;97626.25;;;1.39;100.00
51261;BME280;61705;46.228;24.812;2024-02-04T06:52:12;97621.00;;;1.44;100.00
51261;BME280;61705;46.228;24.812;2024-02-04T06:54:39;97614.88;;;1.48;100.00
51261;BME280;61705;46.228;24.812;2024-02-04T06:57:06;97617.41;;;1.56;100.00
51261;BME280;61705;46.228;24.812;2024-02-04T06:59:32;97625.97;;;1.64;100.00
51261;BME280;61705;46.228;24.812;2024-02-04T07:01:59;97633.72;;;1.72;100.00
51261;BME280;61705;46.228;24.812;2024-02-04T07:04:26;97645.84;;;1.76;100.00
51261;BME280;61705;46.228;24.812;2024-02-04T07:06:52;97642.34;;;1.77;100.00
51261;BME280;61705;46.228;24.812;2024-02-04T07:09:19;97649.28;;;1.78;100.00
51261;BME280;61705;46.228;24.812;2024-02-04T07:11:46;97637.06;;;1.83;100.00
51261;BME280;61705;46.228;24.812;2024-02-04T07:14:13;97646.56;;;1.88;100.00
51261;BME280;61705;46.228;24.812;2024-02-04T07:16:39;97649.19;;;1.87;100.00
51261;BME280;61705;46.228;24.812;2024-02-04T07:19:06;97647.44;;;1.87;100.00
51261;BME280;61705;46.228;24.812;2024-02-04T07:21:33;97647.50;;;1.83;100.00
51261;BME280;61705;46.228;24.812;2024-02-04T07:23:59;97653.56;;;1.83;100.00
51261;BME280;61705;46.228;24.812;2024-02-04T07:26:26;97654.38;;;1.87;100.00
51261;BME280;61705;46.228;24.812;2024-02-04T07:28:53;97644.78;;;1.90;100.00
51261;BME280;61705;46.228;24.812;2024-02-04T07:31:20;97644.69;;;2.00;100.00
51261;BME280;61705;46.228;24.812;2024-02-04T07:33:48;97637.63;;;2.09;100.00
51261;BME280;61705;46.228;24.812;2024-02-04T07:36:14;97643.56;;;2.21;100.00
51261;BME280;61705;46.228;24.812;2024-02-04T07:38:41;97640.06;;;2.23;100.00
51261;BME280;61705;46.228;24.812;2024-02-04T07:41:07;97642.59;;;2.29;100.00
51261;BME280;61705;46.228;24.812;2024-02-04T07:43:34;97645.94;;;2.37;100.00
51261;BME280;61705;46.228;24.812;2024-02-04T07:46:02;97646.81;;;2.40;100.00
51261;BME280;61705;46.228;24.812;2024-02-04T07:48:31;97644.06;;;2.47;100.00
51261;BME280;61705;46.228;24.812;2024-02-04T07:50:57;97643.97;;;2.56;100.00
51261;BME280;61705;46.228;24.812;2024-02-04T07:53:24;97646.31;;;2.72;100.00
51261;BME280;61705;46.228;24.812;2024-02-04T07:55:51;97635.75;;;2.81;100.00
51261;BME280;61705;46.228;24.812;2024-02-04T07:58:17;97640.13;;;2.80;100.00
51261;BME280;61705;46.228;24.812;2024-02-04T08:00:44;97633.16;;;2.79;100.00
51261;BME280;61705;46.228;24.812;2024-02-04T08:03:11;97631.34;;;2.84;100.00
51261;BME280;61705;46.228;24.812;2024-02-04T08:05:37;97629.56;;;2.87;100.00
51261;BME280;61705;46.228;24.812;2024-02-04T08:08:04;97625.94;;;2.97;100.00
51261;BME280;61705;46.228;24.812;2024-02-04T08:10:31;97622.22;;;3.12;100.00
51261;BME280;61705;46.228;24.812;2024-02-04T08:12:57;97619.44;;;3.22;100.00
51261;BME280;61705;46.228;24.812;2024-02-04T08:15:24;97621.00;;;3.31;100.00
51261;BME280;61705;46.228;24.812;2024-02-04T08:17:51;97626.06;;;3.40;100.00
51261;BME280;61705;46.228;24.812;2024-02-04T08:20:18;97630.13;;;3.55;100.00
51261;BME280;61705;46.228;24.812;2024-02-04T08:22:44;97618.88;;;3.53;100.00
51261;BME280;61705;46.228;24.812;2024-02-04T08:25:11;97616.47;;;3.41;100.00
51261;BME280;61705;46.228;24.812;2024-02-04T08:27:38;97625.09;;;3.46;100.00
51261;BME280;61705;46.228;24.812;2024-02-04T08:30:06;97629.31;;;3.53;100.00
51261;BME280;61705;46.228;24.812;2024-02-04T08:32:32;97624.66;;;3.70;100.00
51261;BME280;61705;46.228;24.812;2024-02-04T08:34:59;97626.06;;;3.87;100.00
51261;BME280;61705;46.228;24.812;2024-02-04T08:37:26;97621.13;;;3.73;100.00
51261;BME280;61705;46.228;24.812;2024-02-04T08:39:54;97612.38;;;3.72;100.00
51261;BME280;61705;46.228;24.812;2024-02-04T08:42:21;97622.94;;;3.68;100.00
51261;BME280;61705;46.228;24.812;2024-02-04T08:44:47;97616.75;;;3.73;100.00
51261;BME280;61705;46.228;24.812;2024-02-04T08:47:14;97621.06;;;3.74;100.00
51261;BME280;61705;46.228;24.812;2024-02-04T08:49:43;97621.03;;;3.77;100.00
51261;BME280;61705;46.228;24.812;2024-02-04T08:52:10;97628.00;;;3.75;100.00
51261;BME280;61705;46.228;24.812;2024-02-04T08:54:36;97626.25;;;3.77;100.00
51261;BME280;61705;46.228;24.812;2024-02-04T08:57:03;97632.19;;;3.86;100.00
51261;BME280;61705;46.228;24.812;2024-02-04T08:59:30;97638.81;;;4.03;100.00
51261;BME280;61705;46.228;24.812;2024-02-04T09:01:57;97644.97;;;4.01;100.00
51261;BME280;61705;46.228;24.812;2024-02-04T09:04:23;97644.22;;;3.93;100.00
51261;BME280;61705;46.228;24.812;2024-02-04T09:06:50;97646.88;;;3.91;100.00
51261;BME280;61705;46.228;24.812;2024-02-04T09:09:17;97658.25;;;3.90;100.00
51261;BME280;61705;46.228;24.812;2024-02-04T09:11:43;97661.94;;;3.78;100.00
51261;BME280;61705;46.228;24.812;2024-02-04T09:14:10;97665.59;;;3.70;100.00
51261;BME280;61705;46.228;24.812;2024-02-04T09:16:37;97667.06;;;3.85;100.00
51261;BME280;61705;46.228;24.812;2024-02-04T09:19:04;97664.97;;;4.02;100.00
51261;BME280;61705;46.228;24.812;2024-02-04T09:21:31;97668.97;;;4.20;100.00
51261;BME280;61705;46.228;24.812;2024-02-04T09:23:57;97664.53;;;4.25;100.00
51261;BME280;61705;46.228;24.812;2024-02-04T09:26:24;97665.94;;;4.41;100.00
51261;BME280;61705;46.228;24.812;2024-02-04T09:28:54;97669.06;;;4.57;100.00
51261;BME280;61705;46.228;24.812;2024-02-04T09:31:20;97655.81;;;4.65;100.00
51261;BME280;61705;46.228;24.812;2024-02-04T09:33:48;97653.88;;;4.73;100.00
51261;BME280;61705;46.228;24.812;2024-02-04T09:36:15;97657.78;;;4.94;100.00
51261;BME280;61705;46.228;24.812;2024-02-04T09:38:42;97655.75;;;5.05;100.00
51261;BME280;61705;46.228;24.812;2024-02-04T09:41:09;97651.22;;;5.12;100.00
51261;BME280;61705;46.228;24.812;2024-02-04T09:43:35;97642.03;;;5.31;100.00
51261;BME280;61705;46.228;24.812;2024-02-04T09:46:04;97638.28;;;5.41;100.00
51261;BME280;61705;46.228;24.812;2024-02-04T09:48:32;97630.13;;;5.52;100.00
51261;BME280;61705;46.228;24.812;2024-02-04T09:50:59;97620.13;;;5.66;100.00
51261;BME280;61705;46.228;24.812;2024-02-04T09:53:31;97619.84;;;5.77;100.00
51261;BME280;61705;46.228;24.812;2024-02-04T09:55:59;97605.72;;;5.83;100.00
51261;BME280;61705;46.228;24.812;2024-02-04T09:58:26;97606.44;;;5.88;100.00
51261;BME280;61705;46.228;24.812;2024-02-04T10:00:52;97594.03;;;5.94;100.00
51261;BME280;61705;46.228;24.812;2024-02-04T10:03:20;97578.81;;;6.07;100.00
51261;BME280;61705;46.228;24.812;2024-02-04T10:05:47;97568.16;;;6.13;100.00
51261;BME280;61705;46.228;24.812;2024-02-04T10:08:14;97576.03;;;6.13;100.00
51261;BME280;61705;46.228;24.812;2024-02-04T10:10:47;97572.31;;;6.21;100.00
51261;BME280;61705;46.228;24.812;2024-02-04T10:13:14;97569.69;;;6.21;100.00
51261;BME280;61705;46.228;24.812;2024-02-04T10:15:41;97570.63;;;6.18;100.00
51261;BME280;61705;46.228;24.812;2024-02-04T10:18:17;97562.66;;;6.21;100.00
51261;BME280;61705;46.228;24.812;2024-02-04T10:20:44;97559.88;;;6.27;100.00
51261;BME280;61705;46.228;24.812;2024-02-04T10:23:11;97559.19;;;6.21;100.00
51261;BME280;61705;46.228;24.812;2024-02-04T10:25:37;97565.38;;;6.18;100.00
51261;BME280;61705;46.228;24.812;2024-02-04T10:28:04;97568.22;;;6.10;100.00
51261;BME280;61705;46.228;24.812;2024-02-04T10:30:31;97570.94;;;6.07;100.00
51261;BME280;61705;46.228;24.812;2024-02-04T10:32:57;97579.03;;;6.00;100.00
51261;BME280;61705;46.228;24.812;2024-02-04T10:35:24;97571.81;;;6.08;100.00
51261;BME280;61705;46.228;24.812;2024-02-04T10:37:51;97563.06;;;6.07;100.00
51261;BME280;61705;46.228;24.812;2024-02-04T10:40:18;97555.94;;;6.12;100.00
51261;BME280;61705;46.228;24.812;2024-02-04T10:42:45;97555.75;;;6.18;100.00
51261;BME280;61705;46.228;24.812;2024-02-04T10:45:12;97552.81;;;6.29;100.00
51261;BME280;61705;46.228;24.812;2024-02-04T10:47:43;97552.81;;;6.29;100.00
51261;BME280;61705;46.228;24.812;2024-02-04T10:50:13;97559.78;;;6.30;100.00
51261;BME280;61705;46.228;24.812;2024-02-04T10:52:40;97560.53;;;6.34;100.00
51261;BME280;61705;46.228;24.812;2024-02-04T10:55:09;97554.19;;;6.41;100.00
51261;BME280;61705;46.228;24.812;2024-02-04T10:57:37;97557.31;;;6.54;100.00
51261;BME280;61705;46.228;24.812;2024-02-04T11:00:05;97550.19;;;6.57;100.00
51261;BME280;61705;46.228;24.812;2024-02-04T11:02:35;97551.91;;;6.58;100.00
51261;BME280;61705;46.228;24.812;2024-02-04T11:05:05;97545.78;;;6.58;100.00
51261;BME280;61705;46.228;24.812;2024-02-04T11:07:32;97538.59;;;6.64;100.00
51261;BME280;61705;46.228;24.812;2024-02-04T11:10:00;97535.88;;;6.68;100.00
51261;BME280;61705;46.228;24.812;2024-02-04T11:12:28;97524.91;;;6.81;100.00
51261;BME280;61705;46.228;24.812;2024-02-04T11:14:58;97511.41;;;6.92;100.00
51261;BME280;61705;46.228;24.812;2024-02-04T11:27:56;97501.28;;;7.06;100.00
51261;BME280;61705;46.228;24.812;2024-02-04T11:30:23;97482.38;;;7.22;100.00
51261;BME280;61705;46.228;24.812;2024-02-04T11:32:50;97475.06;;;7.30;100.00
51261;BME280;61705;46.228;24.812;2024-02-04T11:35:19;97481.28;;;7.27;100.00
51261;BME280;61705;46.228;24.812;2024-02-04T11:37:46;97482.03;;;7.31;100.00
51261;BME280;61705;46.228;24.812;2024-02-04T11:40:16;97479.38;;;7.32;100.00
51261;BME280;61705;46.228;24.812;2024-02-04T11:42:43;97470.44;;;7.36;100.00
51261;BME280;61705;46.228;24.812;2024-02-04T11:45:10;97471.47;;;7.32;100.00
51261;BME280;61705;46.228;24.812;2024-02-04T11:47:38;97479.50;;;7.28;100.00
51261;BME280;61705;46.228;24.812;2024-02-04T11:50:05;97478.00;;;7.21;100.00
51261;BME280;61705;46.228;24.812;2024-02-04T11:52:33;97483.38;;;7.18;100.00
51261;BME280;61705;46.228;24.812;2024-02-04T11:55:00;97477.13;;;7.22;100.00
51261;BME280;61705;46.228;24.812;2024-02-04T11:57:27;97468.53;;;7.17;100.00
51261;BME280;61705;46.228;24.812;2024-02-04T11:59:54;97461.78;;;7.09;100.00
51261;BME280;61705;46.228;24.812;2024-02-04T12:02:24;97466.44;;;7.01;100.00
51261;BME280;61705;46.228;24.812;2024-02-04T12:04:50;97466.34;;;7.04;100.00
51261;BME280;61705;46.228;24.812;2024-02-04T12:07:17;97468.09;;;7.04;100.00
51261;BME280;61705;46.228;24.812;2024-02-04T12:09:44;97460.44;;;6.98;100.00
51261;BME280;61705;46.228;24.812;2024-02-04T12:12:11;97467.41;;;6.99;100.00
51261;BME280;61705;46.228;24.812;2024-02-04T12:14:38;97461.88;;;7.06;100.00
51261;BME280;61705;46.228;24.812;2024-02-04T12:17:11;97457.44;;;7.08;100.00
51261;BME280;61705;46.228;24.812;2024-02-04T12:19:38;97452.94;;;7.12;100.00
51261;BME280;61705;46.228;24.812;2024-02-04T12:22:10;97453.69;;;7.16;100.00
51261;BME280;61705;46.228;24.812;2024-02-04T12:24:37;97450.25;;;7.13;100.00
51261;BME280;61705;46.228;24.812;2024-02-04T12:27:04;97445.69;;;7.19;100.00
51261;BME280;61705;46.228;24.812;2024-02-04T12:29:31;97436.88;;;7.20;100.00
51261;BME280;61705;46.228;24.812;2024-02-04T12:31:59;97429.56;;;7.28;100.00
51261;BME280;61705;46.228;24.812;2024-02-04T12:34:26;97418.63;;;7.40;100.00
51261;BME280;61705;46.228;24.812;2024-02-04T12:36:59;97413.59;;;7.57;100.00
51261;BME280;61705;46.228;24.812;2024-02-04T12:39:26;97410.13;;;7.79;100.00
51261;BME280;61705;46.228;24.812;2024-02-04T12:41:55;97397.16;;;7.96;100.00
51261;BME280;61705;46.228;24.812;2024-02-04T12:44:22;97397.00;;;8.01;100.00
51261;BME280;61705;46.228;24.812;2024-02-04T12:46:51;97381.16;;;8.02;100.00
51261;BME280;61705;46.228;24.812;2024-02-04T12:49:19;97381.22;;;8.01;100.00
51261;BME280;61705;46.228;24.812;2024-02-04T12:51:49;97380.63;;;7.94;100.00
51261;BME280;61705;46.228;24.812;2024-02-04T12:54:19;97379.16;;;7.87;100.00
51261;BME280;61705;46.228;24.812;2024-02-04T12:56:46;97382.25;;;7.75;100.00
51261;BME280;61705;46.228;24.812;2024-02-04T12:59:23;97395.34;;;7.76;100.00
51261;BME280;61705;46.228;24.812;2024-02-04T13:02:03;97406.72;;;7.77;100.00